Time;durP1;ratioP1;P1;durP2;ratioP2;P2;SDS_P1;SDS_P2;PMS_P1;PMS_P2;Temp;Humidity;BMP_temperature;BMP_pressure;BME280_temperature;BME280_humidity;BME280_pressure;Samples;Min_cycle;Max_cycle;Signal;HPM_P1;HPM_P2
2022/12/22 03:28:07;;;;;;;26.10;16.70;;;7.70;99.90;;;;;;5048570;28;20448;-57
2022/12/22 03:30:34;;;;;;;28.60;16.67;;;7.60;99.90;;;;;;5050003;28;20442;-57
2022/12/22 03:32:59;;;;;;;29.77;17.10;;;7.60;99.90;;;;;;5048213;28;21054;-57
2022/12/22 03:35:25;;;;;;;28.40;16.53;;;7.60;99.90;;;;;;5043241;28;20572;-57
2022/12/22 03:37:51;;;;;;;26.97;15.60;;;7.60;99.90;;;;;;5030722;28;20438;-57
2022/12/22 03:40:17;;;;;;;26.50;16.53;;;7.60;99.90;;;;;;5045671;28;20198;-57
2022/12/22 03:48:10;;;;;;;32.37;15.53;;;7.60;99.90;;;;;;5043068;28;20489;-57
2022/12/22 03:50:36;;;;;;;30.63;16.83;;;7.60;99.90;;;;;;5039968;28;20445;-56
2022/12/22 03:53:03;;;;;;;24.47;15.37;;;7.60;99.90;;;;;;5049301;28;20763;-57
2022/12/22 03:55:29;;;;;;;26.00;15.80;;;7.70;99.90;;;;;;5049458;28;20214;-56
2022/12/22 03:57:55;;;;;;;27.10;16.33;;;7.70;99.90;;;;;;5051399;28;20432;-57
2022/12/22 04:00:21;;;;;;;29.23;16.80;;;7.70;99.90;;;;;;5053959;28;20186;-57
2022/12/22 04:02:46;;;;;;;27.10;15.60;;;7.60;99.90;;;;;;5038478;28;20191;-57
2022/12/22 04:05:12;;;;;;;28.00;17.10;;;7.60;99.90;;;;;;5052326;28;20793;-57
2022/12/22 04:07:38;;;;;;;30.77;16.57;;;7.60;99.90;;;;;;5054373;28;20185;-57
2022/12/22 04:12:54;;;;;;;33.00;17.67;;;7.60;99.90;;;;;;5053336;28;20255;-57
2022/12/22 04:15:25;;;;;;;29.70;17.87;;;7.60;99.90;;;;;;5036370;28;20564;-57
2022/12/22 04:17:51;;;;;;;31.93;17.00;;;7.70;99.90;;;;;;5062769;28;20465;-57
2022/12/22 04:20:17;;;;;;;28.63;16.33;;;7.70;99.90;;;;;;5049182;28;20508;-56
2022/12/22 04:22:43;;;;;;;28.07;16.47;;;7.70;99.90;;;;;;5052474;28;20448;-57
2022/12/22 04:25:09;;;;;;;34.20;17.63;;;7.60;99.90;;;;;;5053233;28;20444;-57
2022/12/22 04:27:34;;;;;;;25.87;16.00;;;7.60;99.90;;;;;;5053187;28;20226;-56
2022/12/22 04:30:00;;;;;;;27.30;16.57;;;7.60;99.90;;;;;;5051236;28;20201;-57
2022/12/22 04:32:25;;;;;;;31.03;17.10;;;7.70;99.90;;;;;;5052502;28;20194;-57
2022/12/22 04:34:51;;;;;;;29.13;16.80;;;7.70;99.90;;;;;;5040131;28;20246;-56
2022/12/22 04:37:17;;;;;;;28.80;16.03;;;7.70;99.90;;;;;;5048052;28;20250;-57
2022/12/22 04:39:42;;;;;;;27.57;15.47;;;7.70;99.90;;;;;;5052396;28;20241;-57
2022/12/22 04:42:08;;;;;;;28.70;15.67;;;7.70;99.90;;;;;;5047977;28;20194;-57
2022/12/22 04:44:33;;;;;;;25.63;15.40;;;7.70;99.90;;;;;;5037833;28;20195;-57
2022/12/22 04:46:59;;;;;;;22.97;14.53;;;7.70;99.90;;;;;;5051781;28;20186;-57
2022/12/22 04:49:24;;;;;;;27.30;16.33;;;7.80;99.90;;;;;;5052396;28;20174;-57
2022/12/22 04:51:50;;;;;;;29.00;16.37;;;7.80;99.90;;;;;;5052669;28;20187;-57
2022/12/22 04:54:15;;;;;;;28.73;16.40;;;7.80;99.90;;;;;;5052826;28;20267;-57
2022/12/22 04:56:41;;;;;;;25.67;16.30;;;7.80;99.90;;;;;;5051687;28;20217;-57
2022/12/22 04:59:07;;;;;;;34.33;16.53;;;7.80;99.90;;;;;;5048442;28;21079;-57
2022/12/22 05:01:32;;;;;;;23.43;15.30;;;7.80;99.90;;;;;;5051966;28;20186;-57
2022/12/22 05:03:58;;;;;;;29.83;15.90;;;7.70;99.90;;;;;;5037687;28;20238;-57
2022/12/22 05:06:23;;;;;;;28.87;16.83;;;7.70;99.90;;;;;;5036119;28;20705;-57
2022/12/22 05:08:49;;;;;;;27.27;16.40;;;7.70;99.90;;;;;;5052648;28;20257;-57
2022/12/22 05:11:15;;;;;;;25.93;16.40;;;7.70;99.90;;;;;;5050828;28;20288;-57
2022/12/22 05:13:40;;;;;;;27.63;16.20;;;7.70;99.90;;;;;;5042205;28;20206;-57
2022/12/22 05:16:11;;;;;;;26.77;15.70;;;7.80;99.90;;;;;;5038161;28;20246;-57
2022/12/22 05:18:38;;;;;;;24.10;16.10;;;7.80;99.90;;;;;;5045509;28;20182;-56
2022/12/22 05:21:12;;;;;;;28.60;17.40;;;7.80;99.90;;;;;;5047817;28;20460;-57
2022/12/22 05:23:38;;;;;;;26.80;16.13;;;7.90;99.90;;;;;;5052354;28;20435;-57
2022/12/22 05:26:04;;;;;;;32.87;17.07;;;7.90;99.90;;;;;;5050816;28;20490;-58
2022/12/22 05:28:31;;;;;;;31.00;17.60;;;7.90;99.90;;;;;;5052387;28;20269;-57
2022/12/22 05:30:56;;;;;;;27.87;16.50;;;7.90;99.90;;;;;;5047145;28;20201;-57
2022/12/22 05:33:22;;;;;;;29.00;16.80;;;8.00;99.90;;;;;;5051955;28;20923;-57
2022/12/22 05:35:48;;;;;;;33.13;17.23;;;8.00;99.90;;;;;;5050592;28;20303;-57
2022/12/22 05:38:13;;;;;;;28.63;17.20;;;7.90;99.90;;;;;;5049583;28;20197;-57
2022/12/22 05:40:39;;;;;;;35.30;18.10;;;8.00;99.90;;;;;;5052798;28;20523;-57
2022/12/22 05:43:04;;;;;;;30.40;16.90;;;7.90;99.90;;;;;;5052114;28;20194;-57
2022/12/22 05:45:30;;;;;;;35.63;17.47;;;7.90;99.90;;;;;;5044292;28;20198;-58
2022/12/22 05:47:55;;;;;;;32.90;17.17;;;7.90;99.90;;;;;;5039943;28;20268;-57
2022/12/22 05:50:23;;;;;;;28.37;16.67;;;7.90;99.90;;;;;;5051693;28;20193;-57
2022/12/22 05:52:49;;;;;;;34.80;16.57;;;8.00;99.90;;;;;;5045094;28;20199;-57
2022/12/22 05:55:15;;;;;;;32.40;18.93;;;8.00;99.90;;;;;;5039014;28;20476;-57
2022/12/22 05:57:42;;;;;;;33.03;18.40;;;8.00;99.90;;;;;;5040819;28;20580;-57
2022/12/22 06:00:12;;;;;;;35.93;18.73;;;7.90;99.90;;;;;;5033161;28;20748;-57
2022/12/22 06:02:41;;;;;;;37.30;20.00;;;8.00;99.90;;;;;;5037412;28;20467;-57
2022/12/22 06:05:08;;;;;;;35.27;18.87;;;8.00;99.90;;;;;;5051145;28;20510;-57
2022/12/22 06:07:34;;;;;;;40.40;19.70;;;8.00;99.90;;;;;;5052596;28;20429;-57
2022/12/22 06:10:00;;;;;;;41.80;19.67;;;8.00;99.90;;;;;;5032499;28;20796;-57
2022/12/22 06:12:25;;;;;;;38.93;19.80;;;8.00;99.90;;;;;;5048002;28;20200;-57
2022/12/22 06:14:51;;;;;;;34.67;19.40;;;7.90;99.90;;;;;;5047381;28;20670;-57
2022/12/22 06:17:17;;;;;;;37.07;19.73;;;8.00;99.90;;;;;;5050243;28;20524;-57
2022/12/22 06:19:42;;;;;;;36.97;20.47;;;8.00;99.90;;;;;;5049407;28;20178;-57
2022/12/22 06:22:08;;;;;;;42.27;20.57;;;8.00;99.90;;;;;;5038693;28;20191;-57
2022/12/22 06:24:33;;;;;;;39.23;20.87;;;8.00;99.90;;;;;;5041172;28;20582;-57
2022/12/22 06:27:00;;;;;;;41.93;21.93;;;8.00;99.90;;;;;;5050880;28;20236;-57
2022/12/22 06:29:25;;;;;;;40.43;20.30;;;8.00;99.90;;;;;;5051516;28;20187;-57
2022/12/22 06:31:51;;;;;;;41.37;20.77;;;8.00;99.90;;;;;;5043465;28;20444;-57
2022/12/22 06:34:17;;;;;;;40.63;20.50;;;8.00;99.90;;;;;;5052061;28;20300;-57
2022/12/22 06:36:44;;;;;;;42.20;21.57;;;7.90;99.90;;;;;;5046898;28;20594;-57
2022/12/22 06:39:10;;;;;;;39.73;21.90;;;7.90;99.90;;;;;;5051694;28;20167;-57
2022/12/22 06:44:19;;;;;;;36.60;21.17;;;8.00;99.90;;;;;;5043780;28;20257;-57
2022/12/22 06:46:45;;;;;;;37.90;20.80;;;7.90;99.90;;;;;;5043632;28;20859;-57
2022/12/22 06:49:11;;;;;;;39.53;21.70;;;8.00;99.90;;;;;;5041409;28;20183;-57
2022/12/22 06:51:36;;;;;;;44.30;21.63;;;7.90;99.90;;;;;;5032654;28;20199;-57
2022/12/22 06:54:02;;;;;;;42.20;21.60;;;8.00;99.90;;;;;;5051551;28;20190;-57
2022/12/22 06:56:27;;;;;;;46.40;22.27;;;8.00;99.90;;;;;;5049263;28;20253;-57
2022/12/22 06:58:53;;;;;;;42.47;22.17;;;8.00;99.90;;;;;;5046063;28;20187;-57
2022/12/22 07:01:19;;;;;;;41.63;22.47;;;8.00;99.90;;;;;;5040503;28;20637;-58
2022/12/22 07:03:44;;;;;;;40.60;21.57;;;8.00;99.90;;;;;;5039050;28;20281;-57
2022/12/22 07:06:10;;;;;;;38.20;21.67;;;8.00;99.90;;;;;;5046318;28;20182;-58
2022/12/22 07:08:36;;;;;;;45.03;22.27;;;8.00;99.90;;;;;;5050948;28;20193;-58
2022/12/22 07:11:01;;;;;;;41.67;21.50;;;7.90;99.90;;;;;;5048624;28;20433;-57
2022/12/22 07:13:32;;;;;;;44.43;22.33;;;7.90;99.90;;;;;;5043185;28;20250;-58
2022/12/22 07:15:59;;;;;;;41.83;21.67;;;7.90;99.90;;;;;;5043828;28;20222;-57
2022/12/22 07:18:24;;;;;;;42.33;21.20;;;7.90;99.90;;;;;;5035474;28;20448;-57
2022/12/22 07:20:50;;;;;;;41.80;21.97;;;7.90;99.90;;;;;;5047772;28;20927;-58
2022/12/22 07:23:15;;;;;;;43.63;22.70;;;7.90;99.90;;;;;;5047302;28;20195;-58
2022/12/22 07:25:41;;;;;;;46.43;21.73;;;7.90;99.90;;;;;;5046048;28;20191;-58
2022/12/22 07:28:07;;;;;;;40.73;21.60;;;7.90;99.90;;;;;;5033720;28;20201;-58
2022/12/22 07:30:35;;;;;;;44.37;23.03;;;7.90;99.90;;;;;;5036810;28;20221;-57
2022/12/22 07:33:01;;;;;;;40.63;22.07;;;8.00;99.90;;;;;;5043320;28;20186;-57
2022/12/22 07:35:26;;;;;;;40.47;21.50;;;7.90;99.90;;;;;;5041623;28;20554;-57
2022/12/22 07:37:52;;;;;;;41.97;23.30;;;7.90;99.90;;;;;;5050525;28;21328;-57
2022/12/22 07:40:17;;;;;;;40.77;21.87;;;7.90;99.90;;;;;;5033649;28;20287;-57
2022/12/22 07:42:43;;;;;;;37.90;21.00;;;7.90;99.90;;;;;;5050669;28;20201;-57
2022/12/22 07:45:13;;;;;;;41.17;21.43;;;7.90;99.90;;;;;;5050019;28;20190;-57
2022/12/22 07:47:39;;;;;;;38.43;20.80;;;7.90;99.90;;;;;;5050715;28;20182;-57
2022/12/22 07:50:24;;;;;;;42.10;21.13;;;7.90;99.90;;;;;;5045542;28;20803;-57
2022/12/22 07:52:51;;;;;;;43.60;22.67;;;7.90;99.90;;;;;;5031260;28;20437;-57
2022/12/22 07:55:17;;;;;;;44.43;22.23;;;7.90;99.90;;;;;;5031162;28;20865;-57
2022/12/22 07:57:42;;;;;;;43.70;21.27;;;8.00;99.90;;;;;;5048124;28;20445;-57
2022/12/22 08:00:09;;;;;;;41.30;21.60;;;8.00;99.90;;;;;;5049510;28;20191;-57
2022/12/22 08:02:34;;;;;;;43.50;20.90;;;8.00;99.90;;;;;;5046014;28;20273;-57
2022/12/22 08:05:00;;;;;;;46.90;23.20;;;8.00;99.90;;;;;;5046752;28;20525;-57
2022/12/22 08:07:25;;;;;;;47.43;22.30;;;7.90;99.90;;;;;;5048519;28;20201;-57
2022/12/22 08:09:51;;;;;;;37.50;20.53;;;7.90;99.90;;;;;;5048816;28;20670;-57
2022/12/22 08:12:17;;;;;;;40.67;21.93;;;7.90;99.90;;;;;;5049904;28;20782;-56
2022/12/22 08:14:44;;;;;;;42.13;21.30;;;7.90;99.90;;;;;;5049646;28;20206;-57
2022/12/22 08:17:11;;;;;;;39.57;21.50;;;7.90;99.90;;;;;;5039556;28;20182;-56
2022/12/22 08:19:37;;;;;;;34.67;19.70;;;8.00;99.90;;;;;;5035546;28;20446;-56
2022/12/22 08:22:03;;;;;;;41.10;20.83;;;8.00;99.90;;;;;;5042384;28;20447;-57
2022/12/22 08:24:29;;;;;;;39.27;21.33;;;8.00;99.90;;;;;;5049867;28;20187;-57
2022/12/22 08:26:58;;;;;;;40.90;20.83;;;8.00;99.90;;;;;;5042603;28;20441;-60
2022/12/22 08:29:33;;;;;;;35.90;19.23;;;7.90;99.90;;;;;;5030340;28;20472;-57
2022/12/22 08:32:00;;;;;;;33.00;17.10;;;8.00;99.90;;;;;;5045298;28;20482;-56
2022/12/22 08:34:25;;;;;;;37.47;18.90;;;8.00;99.90;;;;;;5050019;28;20511;-57
2022/12/22 08:36:56;;;;;;;33.20;18.10;;;8.00;99.90;;;;;;5044028;28;20575;-57
2022/12/22 08:39:24;;;;;;;32.63;17.70;;;8.00;99.90;;;;;;5030752;28;20449;-56
2022/12/22 08:41:50;;;;;;;34.43;19.23;;;8.00;99.90;;;;;;5043888;28;20527;-57
2022/12/22 08:44:21;;;;;;;34.13;18.83;;;8.10;99.90;;;;;;5044453;28;20527;-56
2022/12/22 08:46:47;;;;;;;39.10;18.67;;;8.00;99.90;;;;;;5054454;28;20209;-56
2022/12/22 08:49:13;;;;;;;34.27;17.33;;;8.00;99.90;;;;;;5043053;28;20902;-57
2022/12/22 08:51:38;;;;;;;31.90;17.33;;;8.00;99.90;;;;;;5048626;28;20832;-57
2022/12/22 08:54:04;;;;;;;33.83;18.67;;;8.00;99.90;;;;;;5037078;28;20267;-59
2022/12/22 08:56:30;;;;;;;33.37;18.10;;;8.00;99.90;;;;;;5048735;28;20657;-57
2022/12/22 08:58:56;;;;;;;35.83;17.07;;;8.00;99.90;;;;;;5035411;28;20748;-57
2022/12/22 09:01:22;;;;;;;29.57;15.90;;;8.00;99.90;;;;;;5051723;28;20445;-57
2022/12/22 09:03:52;;;;;;;29.93;15.87;;;8.00;99.90;;;;;;5052981;28;20463;-57
2022/12/22 09:06:19;;;;;;;25.57;14.50;;;8.00;99.90;;;;;;5035646;28;20447;-57
2022/12/22 09:08:46;;;;;;;26.60;14.23;;;8.00;99.90;;;;;;5044991;28;20441;-57
2022/12/22 09:11:11;;;;;;;26.00;14.83;;;8.00;99.90;;;;;;5052515;28;20448;-57
2022/12/22 09:13:37;;;;;;;27.17;14.67;;;8.00;99.90;;;;;;5052200;28;20440;-57
2022/12/22 09:16:08;;;;;;;29.63;15.70;;;8.00;99.90;;;;;;5052821;28;20202;-57
2022/12/22 09:18:34;;;;;;;28.87;16.70;;;8.00;99.90;;;;;;5052628;28;20178;-57
2022/12/22 09:21:00;;;;;;;30.13;17.13;;;8.10;99.90;;;;;;5052311;28;20440;-59
2022/12/22 09:23:26;;;;;;;28.37;16.97;;;8.20;99.90;;;;;;5052662;28;20440;-57
2022/12/22 09:25:52;;;;;;;31.07;16.83;;;8.20;99.90;;;;;;5052295;28;20918;-57
2022/12/22 09:28:17;;;;;;;30.27;16.23;;;8.20;99.90;;;;;;5044103;28;20447;-57
2022/12/22 09:30:52;;;;;;;31.17;17.33;;;8.30;99.90;;;;;;5052349;28;20198;-57
2022/12/22 09:33:17;;;;;;;34.53;19.23;;;8.20;99.90;;;;;;5052340;28;20193;-62
2022/12/22 09:35:43;;;;;;;36.37;18.20;;;8.20;99.90;;;;;;5046078;28;20546;-58
2022/12/22 09:38:09;;;;;;;36.83;20.37;;;8.20;99.90;;;;;;5045993;28;20183;-58
2022/12/22 09:40:35;;;;;;;35.63;20.03;;;8.10;99.90;;;;;;5062134;28;20187;-57
2022/12/22 09:43:01;;;;;;;42.70;21.67;;;8.10;99.90;;;;;;5037499;28;20189;-57
2022/12/22 09:45:28;;;;;;;42.93;22.30;;;8.10;99.90;;;;;;5050061;28;20187;-58
2022/12/22 09:47:54;;;;;;;45.00;21.30;;;8.10;99.90;;;;;;5049502;28;20523;-58
2022/12/22 09:50:22;;;;;;;41.40;21.70;;;8.20;99.90;;;;;;5050812;28;20444;-58
2022/12/22 09:53:00;;;;;;;41.97;22.67;;;8.20;99.90;;;;;;5034341;28;20448;-58
2022/12/22 09:55:33;;;;;;;42.07;21.40;;;8.20;99.90;;;;;;5047582;28;20464;-58
2022/12/22 09:57:59;;;;;;;42.03;21.70;;;8.10;99.90;;;;;;5046270;28;20486;-58
2022/12/22 10:00:26;;;;;;;47.53;21.83;;;8.20;99.90;;;;;;5050068;28;20449;-59
2022/12/22 10:03:12;;;;;;;54.67;23.67;;;8.10;99.90;;;;;;5050593;28;20209;-58
2022/12/22 10:05:50;;;;;;;46.40;22.30;;;8.10;99.90;;;;;;5050961;28;20528;-58
2022/12/22 10:08:21;;;;;;;48.63;22.53;;;8.10;99.90;;;;;;5049340;28;20458;-58
2022/12/22 10:10:52;;;;;;;52.60;25.90;;;8.10;99.90;;;;;;5048968;28;20883;-58
2022/12/22 10:13:18;;;;;;;51.20;25.07;;;8.10;99.90;;;;;;5044126;28;20201;-58
2022/12/22 10:15:44;;;;;;;52.47;23.47;;;8.00;99.90;;;;;;5046805;28;20475;-57
2022/12/22 10:18:21;;;;;;;53.63;22.83;;;8.00;99.90;;;;;;5049811;28;20448;-58
2022/12/22 10:21:12;;;;;;;47.10;21.37;;;8.10;99.90;;;;;;5050487;28;20590;-58
2022/12/22 10:23:44;;;;;;;48.83;22.10;;;8.10;99.90;;;;;;5032995;28;21214;-58
2022/12/22 10:26:19;;;;;;;45.17;21.63;;;8.20;99.90;;;;;;5041218;28;20440;-57
2022/12/22 10:29:02;;;;;;;42.83;20.67;;;8.20;99.90;;;;;;5039724;28;21047;-57
2022/12/22 10:31:30;;;;;;;42.57;21.10;;;8.30;99.90;;;;;;5052545;28;20443;-58
2022/12/22 10:34:12;;;;;;;39.70;20.10;;;8.30;99.90;;;;;;5043664;28;20444;-57
2022/12/22 10:36:40;;;;;;;40.57;19.70;;;8.40;99.90;;;;;;5030867;28;20477;-57
2022/12/22 10:39:09;;;;;;;40.73;19.43;;;8.40;99.90;;;;;;5037961;28;20437;-57
2022/12/22 10:41:47;;;;;;;39.33;20.20;;;8.40;99.90;;;;;;5044728;28;20409;-57
2022/12/22 10:44:15;;;;;;;46.23;21.90;;;8.40;99.90;;;;;;5049859;28;20585;-57
2022/12/22 10:46:50;;;;;;;48.00;24.97;;;8.40;99.90;;;;;;5049063;28;20431;-57
2022/12/22 10:49:37;;;;;;;41.83;20.93;;;8.60;99.90;;;;;;5048025;28;20420;-57
2022/12/22 10:52:25;;;;;;;36.60;18.50;;;8.70;99.90;;;;;;5042358;28;20444;-57
2022/12/22 10:54:51;;;;;;;36.47;19.13;;;8.90;99.90;;;;;;5041210;28;20437;-57
2022/12/22 10:57:16;;;;;;;39.90;18.80;;;9.10;99.90;;;;;;5049478;28;20740;-57
2022/12/22 10:59:50;;;;;;;35.80;19.00;;;9.90;99.90;;;;;;5046613;28;20186;-57
2022/12/22 11:02:30;;;;;;;29.37;16.80;;;11.30;99.90;;;;;;5045963;28;20186;-57
2022/12/22 11:05:10;;;;;;;23.70;14.33;;;12.90;1.00;;;;;;5040030;28;20436;-57
2022/12/22 11:07:38;;;;;;;22.43;14.47;;;13.70;99.90;;;;;;5045253;28;20448;-57
2022/12/22 11:10:33;;;;;;;20.43;13.83;;;13.50;1.00;;;;;;5039111;28;20988;-57
2022/12/22 11:13:06;;;;;;;18.67;12.90;;;13.40;1.00;;;;;;5051792;28;20508;-57
2022/12/22 11:16:19;;;;;;;22.87;13.80;;;13.00;1.00;;;;;;5048595;28;20874;-57
2022/12/22 11:19:06;;;;;;;20.67;13.33;;;12.20;1.00;;;;;;5042055;28;20451;-57
2022/12/22 11:21:40;;;;;;;20.73;13.23;;;11.30;99.90;;;;;;5043580;28;20440;-56
2022/12/22 11:24:30;;;;;;;21.83;14.00;;;10.60;35.40;;;;;;5049181;28;20428;-56
2022/12/22 11:27:17;;;;;;;23.17;13.67;;;10.10;99.90;;;;;;5042810;28;20441;-57
2022/12/22 11:29:43;;;;;;;27.10;14.67;;;9.80;1.00;;;;;;5048672;28;20515;-56
2022/12/22 11:32:32;;;;;;;23.03;13.30;;;9.70;28.50;;;;;;5041245;28;20535;-56
2022/12/22 11:35:15;;;;;;;25.57;15.47;;;9.80;99.90;;;;;;5043387;28;20311;-56
2022/12/22 11:37:55;;;;;;;28.10;14.73;;;10.10;99.90;;;;;;5048811;28;20440;-56
2022/12/22 11:40:40;;;;;;;28.77;15.33;;;10.90;99.90;;;;;;5051246;28;20416;-56
2022/12/22 11:43:14;;;;;;;26.07;14.10;;;11.60;1.00;;;;;;5050024;28;20437;-56
2022/12/22 11:46:05;;;;;;;21.60;12.80;;;12.00;1.00;;;;;;5050746;28;20763;-56
2022/12/22 11:48:53;;;;;;;19.70;12.90;;;12.40;1.00;;;;;;5050156;28;20522;-56
2022/12/22 11:51:53;;;;;;;21.37;12.23;;;12.20;1.00;;;;;;5040686;28;20491;-56
2022/12/22 11:54:30;;;;;;;23.43;13.60;;;11.60;1.00;;;;;;5050604;28;20408;-56
2022/12/22 11:57:29;;;;;;;22.37;12.83;;;11.70;1.00;;;;;;5050499;28;20490;-56
2022/12/22 12:00:12;;;;;;;20.03;11.97;;;11.90;99.90;;;;;;5038569;28;20463;-56
2022/12/22 12:03:20;;;;;;;26.40;13.83;;;11.80;1.00;;;;;;5037222;28;20494;-56
2022/12/22 12:06:09;;;;;;;21.07;13.30;;;11.40;99.90;;;;;;5048411;28;20835;-57
2022/12/22 12:09:01;;;;;;;25.00;13.73;;;11.00;99.90;;;;;;5048021;28;20440;-57
2022/12/22 12:11:37;;;;;;;23.13;14.00;;;10.60;99.90;;;;;;5030228;28;20421;-56
2022/12/22 12:14:37;;;;;;;28.47;13.53;;;10.50;99.90;;;;;;5034014;28;21260;-56
2022/12/22 12:17:22;;;;;;;20.93;13.33;;;10.50;1.00;;;;;;5049917;28;20433;-57
2022/12/22 12:20:07;;;;;;;20.07;12.03;;;10.70;99.90;;;;;;5051928;28;20443;-56
2022/12/22 12:22:55;;;;;;;21.50;12.97;;;10.90;99.90;;;;;;5053342;28;20505;-56
2022/12/22 12:25:39;;;;;;;20.97;12.43;;;11.50;99.90;;;;;;5047453;28;20477;-56
2022/12/22 12:28:26;;;;;;;19.03;12.90;;;11.90;66.60;;;;;;5053434;28;20983;-56
2022/12/22 12:30:56;;;;;;;19.67;12.40;;;12.70;12.70;;;;;;5052463;28;20826;-56
2022/12/22 12:33:31;;;;;;;18.33;11.70;;;13.40;1.00;;;;;;5052967;28;20790;-57
2022/12/22 12:36:02;;;;;;;17.30;11.63;;;13.80;1.00;;;;;;5052835;28;20570;-56
2022/12/22 12:38:37;;;;;;;17.83;11.43;;;14.10;1.00;;;;;;5044817;28;20444;-56
2022/12/22 12:41:19;;;;;;;25.07;12.30;;;13.80;1.00;;;;;;5053246;28;20523;-60
2022/12/22 12:43:47;;;;;;;21.83;11.80;;;13.80;1.00;;;;;;5052241;28;20769;-57
2022/12/22 12:46:43;;;;;;;16.90;11.20;;;13.50;1.00;;;;;;5052934;28;20448;-56
2022/12/22 12:49:33;;;;;;;16.87;11.20;;;12.80;1.00;;;;;;5052774;28;20777;-57
2022/12/22 12:52:38;;;;;;;21.10;11.90;;;12.50;1.00;;;;;;5045407;28;20440;-56
2022/12/22 12:55:25;;;;;;;17.93;11.03;;;12.90;1.00;;;;;;5052792;28;20666;-56
2022/12/22 12:57:51;;;;;;;16.80;10.80;;;14.50;1.00;;;;;;5036665;28;20432;-56
2022/12/22 13:00:32;;;;;;;15.50;9.60;;;16.20;1.00;;;;;;5040655;28;20920;-57
2022/12/22 13:03:01;;;;;;;17.80;8.97;;;17.00;1.00;;;;;;5038281;28;20440;-56
2022/12/22 13:05:48;;;;;;;13.83;7.97;;;16.60;1.00;;;;;;5043542;28;20460;-56
2022/12/22 13:08:19;;;;;;;16.37;8.00;;;15.40;1.00;;;;;;5046986;28;20436;-55
2022/12/22 13:10:53;;;;;;;19.53;7.60;;;14.30;1.00;;;;;;5040281;28;20502;-56
2022/12/22 13:13:24;;;;;;;17.57;8.13;;;13.90;1.00;;;;;;5052370;28;20802;-56
2022/12/22 13:15:58;;;;;;;15.40;8.20;;;13.30;1.00;;;;;;5052602;28;20510;-56
2022/12/22 13:18:24;;;;;;;13.83;8.17;;;13.10;1.00;;;;;;5034124;28;20444;-56
2022/12/22 13:20:59;;;;;;;10.90;7.03;;;13.20;1.00;;;;;;5033456;28;20440;-56
2022/12/22 13:23:41;;;;;;;12.00;7.20;;;13.60;1.00;;;;;;5050484;28;20281;-56
2022/12/22 13:26:16;;;;;;;14.30;7.80;;;14.50;1.00;;;;;;5049884;28;20440;-57
2022/12/22 13:28:45;;;;;;;12.60;7.20;;;15.40;1.00;;;;;;5046071;28;20995;-55
2022/12/22 13:31:22;;;;;;;16.27;7.83;;;15.60;1.00;;;;;;5050690;28;20442;-56
2022/12/22 13:34:12;;;;;;;12.93;7.37;;;14.80;1.00;;;;;;5048514;28;20436;-57
2022/12/22 13:36:38;;;;;;;16.57;7.20;;;13.70;1.00;;;;;;5042805;28;20472;-55
2022/12/22 13:39:11;;;;;;;16.27;7.13;;;12.80;1.00;;;;;;5054253;28;20467;-57
2022/12/22 13:41:39;;;;;;;11.20;7.20;;;12.30;1.00;;;;;;5051988;28;20941;-59
2022/12/22 13:44:09;;;;;;;14.43;8.07;;;11.90;1.00;;;;;;5052235;28;20504;-55
2022/12/22 13:46:36;;;;;;;15.27;7.47;;;11.50;1.00;;;;;;5050418;28;20510;-56
2022/12/22 13:49:03;;;;;;;22.33;9.13;;;11.20;1.00;;;;;;5052023;28;20435;-56
2022/12/22 13:51:35;;;;;;;18.57;8.23;;;10.90;1.00;;;;;;5048840;28;21007;-59
2022/12/22 13:54:23;;;;;;;13.43;7.13;;;10.80;1.00;;;;;;5044833;28;20902;-55
2022/12/22 13:56:55;;;;;;;15.43;7.63;;;11.00;1.00;;;;;;5041475;28;20861;-56
2022/12/22 13:59:38;;;;;;;18.70;7.60;;;11.40;1.00;;;;;;5051051;28;20436;-56
2022/12/22 14:02:15;;;;;;;18.30;8.13;;;11.70;1.00;;;;;;5051197;28;20471;-56
2022/12/22 14:04:44;;;;;;;15.63;8.07;;;11.60;1.00;;;;;;5051932;28;20432;-56
2022/12/22 14:07:18;;;;;;;17.40;7.50;;;11.10;1.00;;;;;;5051310;28;20420;-56
2022/12/22 14:09:47;;;;;;;14.60;8.50;;;10.60;1.00;;;;;;5052328;28;20765;-56
2022/12/22 14:12:20;;;;;;;16.63;8.17;;;10.00;1.00;;;;;;5051194;28;20440;-56
2022/12/22 14:14:48;;;;;;;18.30;7.77;;;9.70;1.00;;;;;;5051568;28;20473;-56
2022/12/22 14:17:29;;;;;;;20.53;8.07;;;9.40;25.40;;;;;;5049889;28;20958;-60
2022/12/22 14:19:57;;;;;;;15.13;7.30;;;9.20;99.90;;;;;;5052109;28;20405;-55
2022/12/22 14:23:09;;;;;;;16.57;8.03;;;9.00;99.90;;;;;;5051234;28;20926;-56
2022/12/22 14:25:40;;;;;;;23.27;7.70;;;8.80;99.90;;;;;;5028814;28;20444;-56
2022/12/22 14:28:19;;;;;;;17.03;8.60;;;8.70;99.90;;;;;;5042981;28;20441;-56
2022/12/22 14:30:49;;;;;;;19.03;8.70;;;8.50;1.00;;;;;;5051092;28;20431;-55
2022/12/22 14:33:26;;;;;;;21.63;8.60;;;8.40;1.00;;;;;;5050691;28;20440;-55
2022/12/22 14:36:17;;;;;;;19.17;9.17;;;8.30;1.00;;;;;;5050870;28;20488;-56
2022/12/22 14:38:50;;;;;;;24.73;9.30;;;8.20;99.90;;;;;;5051291;28;20512;-56
2022/12/22 14:41:42;;;;;;;20.50;8.97;;;8.10;99.90;;;;;;5050160;28;20494;-56
2022/12/22 14:44:33;;;;;;;27.60;9.20;;;8.00;99.90;;;;;;5042454;28;20524;-57
2022/12/22 14:47:11;;;;;;;16.70;8.40;;;7.90;1.00;;;;;;5051003;28;20794;-56
2022/12/22 14:49:43;;;;;;;22.93;9.40;;;7.80;56.20;;;;;;5050664;28;20432;-56
2022/12/22 14:52:19;;;;;;;21.03;8.20;;;7.70;99.90;;;;;;5051442;28;20803;-55
2022/12/22 14:54:48;;;;;;;24.73;9.50;;;7.60;99.90;;;;;;5050526;28;20428;-56
2022/12/22 14:57:20;;;;;;;25.23;11.37;;;7.50;1.00;;;;;;5051419;28;20764;-56
2022/12/22 15:00:02;;;;;;;20.77;9.20;;;7.50;99.90;;;;;;5050248;28;20437;-56
2022/12/22 15:02:37;;;;;;;28.60;10.23;;;7.50;1.00;;;;;;5051622;28;20392;-56
2022/12/22 15:05:22;;;;;;;18.83;9.03;;;7.40;1.00;;;;;;5049740;28;20949;-56
2022/12/22 15:07:53;;;;;;;24.43;11.00;;;7.30;99.90;;;;;;5051228;28;20409;-56
2022/12/22 15:10:19;;;;;;;30.00;9.30;;;7.20;1.00;;;;;;5050386;28;20464;-56
2022/12/22 15:12:46;;;;;;;25.40;9.30;;;7.10;1.00;;;;;;5051301;28;20444;-56
2022/12/22 15:15:18;;;;;;;23.30;10.60;;;7.00;99.90;;;;;;5050131;28;20201;-56
2022/12/22 15:17:47;;;;;;;26.77;9.80;;;7.00;1.00;;;;;;5052172;28;20801;-56
2022/12/22 15:20:16;;;;;;;20.57;10.00;;;6.90;99.90;;;;;;5051733;28;20423;-56
2022/12/22 15:22:42;;;;;;;23.30;11.03;;;6.80;99.90;;;;;;5050512;28;20490;-57
2022/12/22 15:25:13;;;;;;;22.57;10.67;;;6.80;99.90;;;;;;5051251;28;20421;-56
2022/12/22 15:27:38;;;;;;;30.20;10.20;;;6.80;1.00;;;;;;5050066;28;20186;-56
2022/12/22 15:30:04;;;;;;;26.17;9.80;;;6.80;1.00;;;;;;5051363;28;20474;-56
2022/12/22 15:32:30;;;;;;;31.30;10.50;;;6.70;96.40;;;;;;5050647;28;20190;-56
2022/12/22 15:34:56;;;;;;;21.80;10.60;;;6.70;99.90;;;;;;5050699;28;20495;-57
2022/12/22 15:37:21;;;;;;;25.80;9.80;;;6.70;1.00;;;;;;5047671;28;20190;-56
2022/12/22 15:39:47;;;;;;;28.83;10.93;;;6.70;1.00;;;;;;5050972;28;20181;-59
2022/12/22 15:42:12;;;;;;;26.70;9.80;;;6.80;99.90;;;;;;5049513;28;20194;-56
2022/12/22 15:44:38;;;;;;;22.90;9.20;;;6.90;99.90;;;;;;5045899;28;20250;-56
2022/12/22 15:47:04;;;;;;;22.00;9.00;;;6.80;94.40;;;;;;5044879;28;20211;-56
2022/12/22 15:49:30;;;;;;;20.10;9.77;;;6.80;41.30;;;;;;5034719;28;20618;-56
2022/12/22 15:52:00;;;;;;;19.37;8.77;;;6.80;7.00;;;;;;5052614;28;20413;-56
2022/12/22 15:54:27;;;;;;;24.70;10.23;;;6.70;1.00;;;;;;5059314;28;20471;-56
2022/12/22 15:56:54;;;;;;;21.73;9.50;;;6.70;1.00;;;;;;5043531;28;20526;-56
2022/12/22 15:59:27;;;;;;;20.10;9.03;;;6.60;4.10;;;;;;5046638;28;21104;-56
2022/12/22 16:01:55;;;;;;;27.27;9.87;;;6.60;23.60;;;;;;5054174;28;20943;-56
2022/12/22 16:04:22;;;;;;;21.90;9.40;;;6.60;62.10;;;;;;5042416;28;20441;-56
2022/12/22 16:06:49;;;;;;;27.57;9.67;;;6.50;83.10;;;;;;5039506;28;20436;-56
2022/12/22 16:09:22;;;;;;;19.40;9.67;;;6.50;99.90;;;;;;5042642;28;20448;-56
2022/12/22 16:11:48;;;;;;;24.33;9.40;;;6.50;99.90;;;;;;5045293;28;20613;-56
2022/12/22 16:14:15;;;;;;;24.20;10.10;;;6.50;99.90;;;;;;5051311;28;20437;-56
2022/12/22 16:16:41;;;;;;;26.10;9.67;;;6.50;99.90;;;;;;5033378;28;20321;-56
2022/12/22 16:19:16;;;;;;;31.40;10.43;;;6.60;99.90;;;;;;5045648;28;20515;-56
2022/12/22 16:21:46;;;;;;;28.83;11.73;;;6.60;99.90;;;;;;5035336;28;20622;-55
2022/12/22 16:24:29;;;;;;;21.67;9.90;;;6.60;99.90;;;;;;5038691;28;20903;-55
2022/12/22 16:26:59;;;;;;;23.90;9.90;;;6.70;99.90;;;;;;5035908;28;20455;-55
2022/12/22 16:29:25;;;;;;;26.40;10.73;;;6.60;99.90;;;;;;5033126;28;20436;-56
2022/12/22 16:31:52;;;;;;;35.97;12.13;;;6.60;99.90;;;;;;5034243;28;20452;-56
2022/12/22 16:34:17;;;;;;;26.40;11.43;;;6.60;99.90;;;;;;5036896;28;20432;-56
2022/12/22 16:36:43;;;;;;;31.27;11.70;;;6.60;99.90;;;;;;5046250;28;20464;-55